Samuels, Idaho
Current Conditions -  °F | °C
As of 10:15 PM on Saturday 25 Oct 2014 (Local Time) from KSZT Reporting Station
Drizzle Drizzle  
Wind Chill: 48°   Ceiling: 6000
Heat Index: 48°   Visibility: 10mi
Dew Point: 48°   Wind: 3mph
Humidity: 100%   Direction: 180°S
Pressure: 29.58"   Gusts: NA
Location:  48.48°N, 116.46°W
Report Text: KSZT 260515Z AUTO 18003KT 10SM -DZ SCT047 OVC060 09/09 A2958 RMK AO2
Loading
Personal Weather Stations






























Interactive Weather Map
Tropical Storm Tracking
New forecast layout! Learn more

10-Day Weather Forecast

Advertisements
Track Severe Weather on mobile